Home   Weather   Germany   Merseburg   Past weeks
Flag for Germany

Past Weather in Merseburg, Saxony-Anhalt, Germany — Yesterday and Last 2 Weeks

Currently: 84 °F. Passing clouds. (Weather station: Leipzig-Schkeuditz, Germany). See more current weather

Past Weather in Merseburg — Graph

°F

Merseburg Temperature Yesterday

Maximum temperature yesterday: 79 °F (at 2:20 pm)
Minimum temperature yesterday: 57 °F (at 4:20 am)
Average temperature yesterday: 68 °F

High & Low Weather Summary for the Past Weeks

 TemperatureHumidityPressure
High84 °F (Jul 13, 4:20 pm)100% (Jul 9, 1:50 pm)30.21 "Hg (Jul 9, 1:50 pm)
Low52 °F (Jul 21, 5:20 am)41% (Jul 22, 12:20 pm)29.71 "Hg (Jul 13, 8:20 pm)
Average67 °F74%30.02 "Hg
* Reported Jul 9 1:20 pm — Jul 24 1:20 pm, Merseburg. Weather by CustomWeather, © 2021

Note: Actual official high and low records may vary slightly from our data, if they occured in-between our weather recording intervals... More about our weather records

Merseburg Weather History for the Previous 24 Hours

Scroll right to see more
 ConditionsComfort  
Time TempWeatherWind HumidityBarometerVisibility
1:20 pm
Sat, Jul 24
82 °FPassing clouds.6 mph45%29.86 "HgN/A
12:50 pm82 °FPassing clouds.5 mph45%29.86 "HgN/A
12:20 pm81 °FPassing clouds.6 mph48%29.89 "HgN/A
11:50 am79 °FSunny.3 mph51%29.89 "Hg10 mi
11:20 am75 °FSunny.2 mph61%29.89 "Hg10 mi
10:50 am75 °FPassing clouds.5 mph61%29.89 "HgN/A
10:20 am73 °FSunny.2 mph61%29.89 "Hg10 mi
9:50 am72 °FSunny.1 mph65%29.89 "Hg10 mi
8:50 am66 °FPassing clouds.3 mph73%29.92 "HgN/A
8:20 am64 °FSunny.2 mph78%29.92 "Hg10 mi
7:50 am63 °FSunny.2 mph77%29.92 "Hg10 mi
7:20 am61 °FSunny.3 mph77%29.92 "Hg10 mi
6:50 am59 °FPassing clouds.3 mph82%29.92 "HgN/A
6:20 am57 °FSunny.5 mph88%29.92 "Hg10 mi
5:50 am55 °FSunny.6 mph94%29.92 "Hg10 mi
5:20 am55 °FClear.7 mph94%29.92 "Hg10 mi
4:50 am55 °FClear.7 mph94%29.92 "Hg10 mi
4:20 am57 °FClear.9 mph88%29.92 "Hg10 mi
3:50 am57 °FClear.9 mph88%29.92 "Hg10 mi
3:20 am59 °FClear.8 mph82%29.92 "Hg10 mi
2:50 am57 °FClear.8 mph88%29.95 "Hg10 mi
1:50 am59 °FClear.8 mph88%29.95 "Hg10 mi
1:20 am61 °FClear.7 mph83%29.95 "Hg10 mi
12:50 am61 °FClear.7 mph83%29.98 "Hg10 mi
12:20 am63 °FClear.7 mph83%29.98 "Hg10 mi
11:50 pm
Fri, Jul 23
64 °FClear.6 mph78%29.98 "Hg10 mi
11:20 pm64 °FClear.6 mph78%29.98 "Hg10 mi
10:50 pm64 °FClear.6 mph78%29.98 "Hg10 mi
10:20 pm66 °FClear.6 mph73%29.98 "Hg10 mi
9:50 pm68 °FClear.6 mph69%29.98 "Hg10 mi
9:20 pm68 °FClear.5 mph69%29.98 "Hg10 mi
8:50 pm70 °FSunny.6 mph64%29.98 "Hg10 mi
8:20 pm73 °FSunny.5 mph57%29.95 "Hg10 mi
7:50 pm75 °FSunny.7 mph50%29.95 "Hg10 mi
7:20 pm77 °FPassing clouds.5 mph44%29.95 "HgN/A
6:50 pm77 °FPassing clouds.3 mph44%29.98 "HgN/A
6:20 pm77 °FPassing clouds.3 mph47%29.98 "HgN/A
5:50 pm75 °FPassing clouds.5 mph47%29.98 "HgN/A
5:20 pm77 °FPassing clouds.3 mph47%29.98 "HgN/A
4:50 pm79 °FPassing clouds.5 mph45%29.98 "HgN/A
4:20 pm79 °FSunny.5 mph45%29.98 "Hg10 mi
3:50 pm79 °FPassing clouds.7 mph45%30.01 "HgN/A
3:20 pm77 °FSunny.3 mph44%30.01 "Hg10 mi
2:50 pm79 °FPassing clouds.6 mph45%30.01 "HgN/A
2:20 pm79 °FPassing clouds.5 mph48%30.01 "HgN/A
Weather by CustomWeather, © 2021

See weather overview